This is the latest recevied weather packets stored in our database for station/object OK1FET-14. If no packets are shown the sender has not sent any weather packets the latest 10 day(s).
| Time | Temp. | Humidity | Pressure | Rain* | Wind** | Luminosity | Snow |
|---|---|---|---|---|---|---|---|
| 1787501347 | 22.22° C | 38% | 1023.5 hPa | - | - | - | - |
| 1787501347 | 22.22° C | 38% | 1023.5 hPa | - | - | - | - |
| 1787501347 | 22.22° C | 38% | 1023.5 hPa | - | - | - | - |
| 1787501066 | 24.44° C | 35% | 1023.4 hPa | - | - | - | - |
| 1787501066 | 24.44° C | 35% | 1023.4 hPa | - | - | - | - |
| 1787501066 | 24.44° C | 35% | 1023.4 hPa | - | - | - | - |
| 1787500785 | 23.89° C | 36% | 1023.5 hPa | - | - | - | - |
| 1787500784 | 23.89° C | 36% | 1023.5 hPa | - | - | - | - |
| 1787500784 | 23.89° C | 36% | 1023.5 hPa | - | - | - | - |
| 1787500784 | 23.89° C | 36% | 1023.5 hPa | - | - | - | - |
| 1787500503 | 25° C | 34% | 1023.5 hPa | - | - | - | - |
| 1787500503 | 25° C | 34% | 1023.5 hPa | - | - | - | - |
| 1787500503 | 25° C | 34% | 1023.5 hPa | - | - | - | - |
| 1787500503 | 25° C | 34% | 1023.5 hPa | - | - | - | - |
| 1787500222 | 24.44° C | 35% | 1023.4 hPa | - | - | - | - |
| 1787500222 | 24.44° C | 35% | 1023.4 hPa | - | - | - | - |
| 1787500222 | 24.44° C | 35% | 1023.4 hPa | - | - | - | - |
| 1787499941 | 24.44° C | 35% | 1023.4 hPa | - | - | - | - |
| 1787499941 | 24.44° C | 35% | 1023.4 hPa | - | - | - | - |
| 1787499941 | 24.44° C | 35% | 1023.4 hPa | - | - | - | - |
| 1787499659 | 24.44° C | 34% | 1023.3 hPa | - | - | - | - |
| 1787499659 | 24.44° C | 34% | 1023.3 hPa | - | - | - | - |
| 1787499659 | 24.44° C | 34% | 1023.3 hPa | - | - | - | - |
| 1787499378 | 25.56° C | 36% | 1023.3 hPa | - | - | - | - |
| 1787499378 | 25.56° C | 36% | 1023.3 hPa | - | - | - | - |
* Rain since midnight (hover to see other rain measurements)
** Current wind speed in m/s (hover to see current wind gust speed)